createdAt,value
2023-05-22T00:00:13.526Z,15.15
2023-05-22T00:01:19.206Z,14.75
2023-05-22T00:02:22.826Z,15.15
2023-05-22T00:03:24.622Z,19.95
2023-05-22T00:04:29.885Z,15.90
2023-05-22T00:05:34.661Z,19.48
2023-05-22T00:06:37.138Z,19.25
2023-05-22T00:07:38.936Z,16.88
2023-05-22T00:08:40.560Z,14.60
2023-05-22T00:09:49.561Z,15.43
2023-05-22T00:10:52.242Z,14.50
2023-05-22T00:11:53.984Z,15.25
2023-05-22T00:12:55.739Z,15.30
2023-05-22T00:13:57.285Z,15.25
2023-05-22T00:14:58.814Z,15.18
2023-05-22T00:16:00.392Z,13.93
2023-05-22T00:17:01.929Z,14.02
2023-05-22T00:18:03.979Z,14.45
2023-05-22T00:19:07.127Z,14.65
2023-05-22T00:20:11.520Z,16.10
2023-05-22T00:21:12.963Z,14.68
2023-05-22T00:22:14.451Z,14.55
2023-05-22T00:23:17.200Z,14.90
2023-05-22T00:24:18.624Z,15.18
2023-05-22T00:25:20.282Z,15.25
2023-05-22T00:26:23.975Z,15.25
2023-05-22T00:27:25.489Z,15.32
2023-05-22T00:28:28.047Z,14.90
2023-05-22T00:29:29.507Z,14.10
2023-05-22T00:30:31.960Z,15.57
2023-05-22T00:31:33.389Z,19.13
2023-05-22T00:32:34.833Z,15.20
2023-05-22T00:33:36.414Z,16.77
2023-05-22T00:34:37.913Z,15.88
2023-05-22T00:35:39.321Z,16.75
2023-05-22T00:36:40.879Z,15.55
2023-05-22T00:37:42.278Z,15.35
2023-05-22T00:38:43.810Z,15.52
2023-05-22T00:39:45.791Z,14.88
2023-05-22T00:40:47.414Z,16.00
2023-05-22T00:41:49.112Z,14.80
2023-05-22T00:42:50.541Z,16.20
2023-05-22T00:43:51.960Z,16.20
2023-05-22T00:44:53.575Z,15.75
2023-05-22T00:45:55.313Z,16.73
2023-05-22T00:46:57.079Z,15.10
2023-05-22T00:47:59.887Z,15.80
2023-05-22T00:49:01.360Z,16.35
2023-05-22T00:50:03.572Z,15.43
2023-05-22T00:51:06.933Z,16.55
2023-05-22T00:52:09.195Z,16.23
2023-05-22T00:53:10.811Z,15.30
2023-05-22T00:54:12.655Z,16.50
2023-05-22T00:55:14.336Z,16.23
2023-05-22T00:56:16.213Z,16.20
2023-05-22T00:57:18.194Z,16.42
2023-05-22T00:58:19.828Z,16.23
2023-05-22T00:59:21.524Z,16.05
2023-05-22T01:00:23.698Z,16.67
2023-05-22T01:01:26.490Z,16.75
2023-05-22T01:02:29.409Z,15.60
2023-05-22T01:03:32.211Z,16.52
2023-05-22T01:04:35.288Z,16.65
2023-05-22T01:05:37.650Z,16.73
2023-05-22T01:06:41.376Z,16.67
2023-05-22T01:07:42.981Z,16.95
2023-05-22T01:08:44.932Z,15.90
2023-05-22T01:09:46.506Z,15.70
2023-05-22T01:10:48.777Z,16.20
2023-05-22T01:11:54.889Z,16.92
2023-05-22T01:13:14.935Z,16.60
2023-05-22T01:14:25.742Z,16.23
2023-05-22T01:15:48.853Z,16.95
2023-05-22T01:17:01.208Z,15.73
2023-05-22T01:18:07.901Z,16.00
2023-05-22T01:19:18.174Z,16.50
2023-05-22T01:20:22.286Z,16.80
2023-05-22T01:21:46.128Z,16.23
2023-05-22T01:23:08.756Z,17.00
2023-05-22T01:24:19.454Z,15.82
2023-05-22T01:25:47.594Z,16.77
2023-05-22T01:27:07.531Z,15.57
2023-05-22T01:28:14.932Z,15.55
2023-05-22T01:29:26.200Z,16.30
2023-05-22T01:30:46.134Z,16.55
2023-05-22T01:31:49.097Z,17.73
2023-05-22T01:32:52.150Z,16.52
2023-05-22T01:33:57.646Z,17.50
2023-05-22T01:35:01.228Z,16.70
2023-05-22T01:36:04.186Z,16.45
2023-05-22T01:37:07.156Z,16.48
2023-05-22T01:38:09.888Z,15.70
2023-05-22T01:39:12.268Z,16.63
2023-05-22T01:40:13.862Z,16.05
2023-05-22T01:41:16.319Z,16.38
2023-05-22T01:42:18.321Z,16.92
2023-05-22T01:43:19.953Z,15.60
2023-05-22T01:44:21.426Z,17.20
2023-05-22T01:45:23.796Z,16.45
2023-05-22T01:46:26.453Z,16.40
2023-05-22T01:47:28.148Z,15.52
2023-05-22T01:48:29.735Z,17.05
2023-05-22T01:49:34.597Z,16.55
2023-05-22T01:50:36.301Z,16.92
2023-05-22T01:51:53.779Z,17.23
2023-05-22T01:53:13.979Z,16.65
2023-05-22T01:54:32.911Z,16.92
2023-05-22T01:55:40.428Z,17.80
2023-05-22T01:56:46.796Z,16.05
2023-05-22T01:57:57.140Z,16.35
2023-05-22T01:58:58.897Z,16.92
2023-05-22T02:00:10.093Z,16.65
2023-05-22T02:01:22.484Z,15.93
2023-05-22T02:02:24.769Z,16.85
2023-05-22T02:03:30.147Z,17.33
2023-05-22T02:04:32.703Z,18.42
2023-05-22T02:05:36.121Z,18.63
2023-05-22T02:06:38.995Z,17.17
2023-05-22T02:07:41.941Z,17.60
2023-05-22T02:08:44.009Z,16.38
2023-05-22T02:09:46.197Z,16.27
2023-05-22T02:10:48.886Z,17.25
2023-05-22T02:11:50.654Z,16.83
2023-05-22T02:12:52.082Z,16.65
2023-05-22T02:13:53.618Z,16.83
2023-05-22T02:14:55.245Z,16.05
2023-05-22T02:15:57.338Z,16.80
2023-05-22T02:17:02.206Z,18.63
2023-05-22T02:18:03.897Z,17.13
2023-05-22T02:19:08.706Z,17.27
2023-05-22T02:20:14.614Z,16.75
2023-05-22T02:21:18.273Z,16.45
2023-05-22T02:22:19.640Z,16.48
2023-05-22T02:23:21.188Z,17.60
2023-05-22T02:24:23.681Z,16.88
2023-05-22T02:25:26.435Z,17.13
2023-05-22T02:26:28.307Z,19.55
2023-05-22T02:27:29.728Z,15.98
2023-05-22T02:28:31.195Z,17.15
2023-05-22T02:29:32.767Z,17.95
2023-05-22T02:30:34.493Z,17.70
2023-05-22T02:31:36.105Z,16.20
2023-05-22T02:32:38.605Z,17.23
2023-05-22T02:33:40.158Z,15.93
2023-05-22T02:34:42.317Z,17.27
2023-05-22T02:35:44.265Z,16.97
2023-05-22T02:36:46.056Z,17.55
2023-05-22T02:37:47.697Z,16.48
2023-05-22T02:38:49.172Z,16.10
2023-05-22T02:39:50.995Z,17.48
2023-05-22T02:40:52.563Z,17.80
2023-05-22T02:41:55.640Z,17.00
2023-05-22T02:42:57.178Z,16.95
2023-05-22T02:43:58.708Z,17.15
2023-05-22T02:45:00.474Z,17.42
2023-05-22T02:46:02.128Z,17.15
2023-05-22T02:47:03.707Z,17.90
2023-05-22T02:48:05.530Z,17.45
2023-05-22T02:49:07.671Z,17.20
2023-05-22T02:50:09.377Z,17.00
2023-05-22T02:51:10.951Z,17.77
2023-05-22T02:52:12.717Z,17.10
2023-05-22T02:53:15.567Z,17.48
2023-05-22T02:54:17.222Z,16.80
2023-05-22T02:55:18.869Z,17.67
2023-05-22T02:56:22.039Z,16.67
2023-05-22T02:57:23.705Z,16.67
2023-05-22T02:58:25.674Z,16.77
2023-05-22T02:59:27.161Z,18.05
2023-05-22T03:00:28.743Z,17.60
2023-05-22T03:01:30.593Z,15.80
2023-05-22T03:02:36.575Z,17.85
2023-05-22T03:03:38.422Z,17.52
2023-05-22T03:04:40.761Z,16.65
2023-05-22T03:05:43.642Z,17.48
2023-05-22T03:06:46.303Z,16.60
2023-05-22T03:07:49.149Z,17.58
2023-05-22T03:08:50.961Z,16.80
2023-05-22T03:09:53.092Z,16.83
2023-05-22T03:10:55.532Z,16.25
2023-05-22T03:11:57.135Z,17.67
2023-05-22T03:12:58.783Z,17.52
2023-05-22T03:14:00.430Z,16.70
2023-05-22T03:15:01.959Z,17.27
2023-05-22T03:16:04.600Z,17.05
2023-05-22T03:17:06.932Z,18.65
2023-05-22T03:18:08.450Z,17.92
2023-05-22T03:19:10.171Z,17.83
2023-05-22T03:20:17.036Z,17.38
2023-05-22T03:21:18.789Z,17.20
2023-05-22T03:22:20.350Z,17.25
2023-05-22T03:23:21.924Z,16.63
2023-05-22T03:24:23.504Z,17.40
2023-05-22T03:25:24.914Z,17.65
2023-05-22T03:26:28.255Z,16.77
2023-05-22T03:27:30.422Z,17.00
2023-05-22T03:28:31.865Z,17.17
2023-05-22T03:29:33.447Z,17.63
2023-05-22T03:30:34.921Z,18.55
2023-05-22T03:31:46.396Z,17.95
2023-05-22T03:32:49.545Z,17.92
2023-05-22T03:33:51.098Z,17.50
2023-05-22T03:34:52.851Z,17.88
2023-05-22T03:35:54.384Z,18.00
2023-05-22T03:36:58.082Z,16.95
2023-05-22T03:38:00.018Z,17.48
2023-05-22T03:39:02.227Z,19.50
2023-05-22T03:40:04.986Z,17.30
2023-05-22T03:41:07.858Z,17.55
2023-05-22T03:42:09.608Z,18.00
2023-05-22T03:43:11.065Z,17.87
2023-05-22T03:44:14.492Z,17.80
2023-05-22T03:45:16.206Z,17.40
2023-05-22T03:46:17.741Z,18.45
2023-05-22T03:47:19.639Z,16.73
2023-05-22T03:48:21.466Z,18.40
2023-05-22T03:49:22.996Z,19.27
2023-05-22T03:50:24.574Z,18.35
2023-05-22T03:51:26.113Z,19.25
2023-05-22T03:52:28.553Z,17.77
2023-05-22T03:53:29.961Z,16.55
2023-05-22T03:54:31.552Z,17.05
2023-05-22T03:55:33.078Z,17.48
2023-05-22T03:56:34.748Z,16.80
2023-05-22T03:57:37.364Z,16.67
2023-05-22T03:58:38.885Z,17.45
2023-05-22T03:59:40.735Z,16.45
2023-05-22T04:00:42.535Z,15.75
2023-05-22T04:01:43.952Z,16.43
2023-05-22T04:02:46.873Z,17.27
2023-05-22T04:03:48.516Z,16.40
2023-05-22T04:04:49.894Z,16.58
2023-05-22T04:05:52.100Z,17.83
2023-05-22T04:06:54.076Z,17.60
2023-05-22T04:07:55.660Z,17.15
2023-05-22T04:08:57.032Z,15.57
2023-05-22T04:09:58.663Z,16.30
2023-05-22T04:11:00.189Z,16.48
2023-05-22T04:12:02.157Z,16.05
2023-05-22T04:13:03.514Z,15.95
2023-05-22T04:14:05.347Z,16.77
2023-05-22T04:15:07.382Z,15.83
2023-05-22T04:16:08.860Z,16.27
2023-05-22T04:17:11.612Z,15.90
2023-05-22T04:18:13.510Z,17.02
2023-05-22T04:19:18.239Z,16.15
2023-05-22T04:20:22.221Z,17.05
2023-05-22T04:21:25.326Z,16.98
2023-05-22T04:22:27.466Z,16.02
2023-05-22T04:23:28.882Z,15.80
2023-05-22T04:24:30.264Z,16.48
2023-05-22T04:25:34.400Z,17.00
2023-05-22T04:26:36.231Z,16.17
2023-05-22T04:27:37.961Z,16.10
2023-05-22T04:28:39.450Z,16.20
2023-05-22T04:29:41.584Z,16.10
2023-05-22T04:30:43.579Z,16.77
2023-05-22T04:31:45.125Z,17.70
2023-05-22T04:32:46.660Z,16.42
2023-05-22T04:33:48.377Z,16.45
2023-05-22T04:34:53.010Z,16.98
2023-05-22T04:35:54.558Z,15.50
2023-05-22T04:36:56.226Z,15.93
2023-05-22T04:38:02.170Z,16.13
2023-05-22T04:39:04.959Z,15.73
2023-05-22T04:40:07.753Z,16.73
2023-05-22T04:41:09.305Z,16.45
2023-05-22T04:42:10.883Z,16.60
2023-05-22T04:43:12.665Z,16.77
2023-05-22T04:44:15.023Z,16.73
2023-05-22T04:45:16.491Z,16.52
2023-05-22T04:46:18.009Z,16.80
2023-05-22T04:47:19.711Z,16.10
2023-05-22T04:48:21.160Z,16.23
2023-05-22T04:49:24.706Z,16.30
2023-05-22T04:50:26.230Z,16.83
2023-05-22T04:51:28.476Z,17.13
2023-05-22T04:52:29.887Z,15.23
2023-05-22T04:53:33.375Z,18.85
2023-05-22T04:54:34.786Z,16.38
2023-05-22T04:55:37.001Z,16.65
2023-05-22T04:56:38.481Z,17.73
2023-05-22T04:57:46.094Z,16.67
2023-05-22T04:58:49.834Z,16.13
2023-05-22T04:59:52.081Z,17.45
2023-05-22T05:00:54.160Z,16.60
2023-05-22T05:01:55.582Z,18.33
2023-05-22T05:02:57.520Z,16.77
2023-05-22T05:03:59.164Z,16.45
2023-05-22T05:05:01.827Z,16.30
2023-05-22T05:06:03.393Z,19.70
2023-05-22T05:07:06.054Z,16.70
2023-05-22T05:08:07.495Z,16.10
2023-05-22T05:09:08.915Z,15.85
2023-05-22T05:10:10.934Z,17.15
2023-05-22T05:11:12.362Z,16.10
2023-05-22T05:12:13.788Z,16.00
2023-05-22T05:13:15.284Z,16.65
2023-05-22T05:14:17.310Z,18.83
2023-05-22T05:15:18.979Z,15.68
2023-05-22T05:16:20.554Z,16.45
2023-05-22T05:17:22.315Z,16.85
2023-05-22T05:18:23.839Z,17.02
2023-05-22T05:19:26.097Z,16.60
2023-05-22T05:20:27.665Z,16.08
2023-05-22T05:21:29.524Z,16.60
2023-05-22T05:22:34.704Z,17.02
2023-05-22T05:23:36.997Z,16.80
2023-05-22T05:24:38.399Z,15.30
2023-05-22T05:26:27.603Z,15.57
2023-05-22T05:27:29.534Z,16.45
2023-05-22T05:28:31.348Z,16.52
2023-05-22T05:29:34.172Z,16.73
2023-05-22T05:30:44.927Z,16.33
2023-05-22T05:31:58.412Z,15.75
2023-05-22T05:33:19.659Z,16.10
2023-05-22T05:34:38.585Z,16.27
2023-05-22T05:35:52.538Z,16.60
2023-05-22T05:36:57.649Z,16.73
2023-05-22T05:38:00.405Z,16.33
2023-05-22T05:39:02.561Z,16.08
2023-05-22T05:40:07.568Z,16.92
2023-05-22T05:41:12.634Z,16.88
2023-05-22T05:42:14.960Z,17.60
2023-05-22T05:43:16.457Z,15.82
2023-05-22T05:44:19.178Z,16.70
2023-05-22T05:45:21.348Z,16.23
2023-05-22T05:46:22.941Z,16.20
2023-05-22T05:47:24.589Z,16.42
2023-05-22T05:48:26.388Z,16.55
2023-05-22T05:49:28.635Z,16.10
2023-05-22T05:50:30.275Z,15.45
2023-05-22T05:51:31.904Z,16.60
2023-05-22T05:52:33.690Z,15.40
2023-05-22T05:53:40.770Z,15.95
2023-05-22T05:54:46.636Z,16.48
2023-05-22T05:55:50.405Z,16.30
2023-05-22T05:56:52.441Z,18.05
2023-05-22T05:57:54.605Z,16.85
2023-05-22T05:59:03.953Z,15.43
2023-05-22T06:00:28.625Z,15.50
2023-05-22T06:01:34.128Z,17.02
2023-05-22T06:02:36.403Z,16.08
2023-05-22T06:03:40.951Z,15.85
2023-05-22T06:05:03.572Z,15.73
2023-05-22T06:06:08.381Z,16.08
2023-05-22T06:07:31.629Z,16.95
2023-05-22T06:08:34.390Z,17.98
2023-05-22T06:09:36.274Z,17.15
2023-05-22T06:10:46.575Z,16.52
2023-05-22T06:11:51.055Z,17.48
2023-05-22T06:12:52.773Z,17.17
2023-05-22T06:13:54.289Z,17.35
2023-05-22T06:14:55.768Z,16.60
2023-05-22T06:15:59.804Z,17.25
2023-05-22T06:17:03.230Z,16.58
2023-05-22T06:18:05.199Z,17.65
2023-05-22T06:19:07.482Z,17.55
2023-05-22T06:20:09.444Z,16.58
2023-05-22T06:21:11.864Z,16.65
2023-05-22T06:22:13.361Z,15.45
2023-05-22T06:23:17.615Z,16.20
2023-05-22T06:24:19.310Z,16.38
2023-05-22T06:25:20.914Z,16.30
2023-05-22T06:26:23.607Z,15.55
2023-05-22T06:27:27.672Z,15.27
2023-05-22T06:28:29.636Z,15.27
2023-05-22T06:29:32.640Z,14.40
2023-05-22T06:30:40.065Z,15.30
2023-05-22T06:31:45.566Z,16.13
2023-05-22T06:32:49.179Z,16.85
2023-05-22T06:33:52.093Z,16.15
2023-05-22T06:34:54.343Z,15.90
2023-05-22T06:35:56.666Z,15.73
2023-05-22T06:36:58.236Z,15.10
2023-05-22T06:38:03.278Z,16.40
2023-05-22T06:39:04.918Z,17.02
2023-05-22T06:40:24.938Z,17.15
2023-05-22T06:41:30.722Z,15.20
2023-05-22T06:42:32.825Z,15.05
2023-05-22T06:43:53.048Z,13.80
2023-05-22T06:45:01.661Z,14.88
2023-05-22T06:46:11.431Z,14.85
2023-05-22T06:47:23.744Z,14.82
2023-05-22T06:48:25.264Z,14.45
2023-05-22T06:49:45.079Z,15.07
2023-05-22T06:50:46.579Z,17.48
2023-05-22T06:51:48.088Z,17.58
2023-05-22T06:52:51.559Z,14.43
2023-05-22T06:53:53.037Z,17.20
2023-05-22T06:55:04.466Z,13.68
2023-05-22T06:56:07.394Z,14.15
2023-05-22T06:57:27.284Z,14.98
2023-05-22T06:58:38.356Z,14.93
2023-05-22T06:59:42.787Z,14.73
2023-05-22T07:01:01.549Z,14.95
2023-05-22T07:02:09.378Z,14.68
2023-05-22T07:03:45.769Z,14.77
2023-05-22T07:05:25.622Z,15.38
2023-05-22T07:06:33.622Z,14.20
2023-05-22T07:07:36.454Z,16.77
2023-05-22T07:08:37.950Z,14.27
2023-05-22T07:09:39.335Z,14.32
2023-05-22T07:10:41.171Z,14.63
2023-05-22T07:11:44.146Z,14.60
2023-05-22T07:12:47.148Z,14.65
2023-05-22T07:13:48.681Z,14.38
2023-05-22T07:14:50.278Z,13.75
2023-05-22T07:15:51.787Z,13.38
2023-05-22T07:16:53.276Z,13.93
2023-05-22T07:18:00.965Z,17.02
2023-05-22T07:19:03.400Z,15.43
2023-05-22T07:20:05.392Z,13.85
2023-05-22T07:21:08.596Z,13.43
2023-05-22T07:22:10.557Z,13.25
2023-05-22T07:23:13.871Z,16.55
2023-05-22T07:24:16.448Z,13.68
2023-05-22T07:25:18.778Z,13.52
2023-05-22T07:26:20.233Z,15.00
2023-05-22T07:27:29.370Z,13.75
2023-05-22T07:28:31.004Z,14.38
2023-05-22T07:29:38.907Z,16.38
2023-05-22T07:30:42.621Z,13.50
2023-05-22T07:31:44.083Z,12.55
2023-05-22T07:32:46.272Z,14.55
2023-05-22T07:33:47.691Z,13.75
2023-05-22T07:34:50.405Z,14.63
2023-05-22T07:35:52.123Z,15.38
2023-05-22T07:36:54.531Z,15.40
2023-05-22T07:37:55.996Z,13.88
2023-05-22T07:38:57.740Z,17.05
2023-05-22T07:39:59.450Z,13.05
2023-05-22T07:41:00.942Z,13.00
2023-05-22T07:42:04.928Z,13.55
2023-05-22T07:43:10.437Z,12.55
2023-05-22T07:44:11.872Z,12.88
2023-05-22T07:45:13.310Z,13.32
2023-05-22T07:46:14.866Z,12.20
2023-05-22T07:47:26.512Z,12.00
2023-05-22T07:48:28.342Z,12.60
2023-05-22T07:49:29.781Z,12.20
2023-05-22T07:50:33.221Z,12.80
2023-05-22T07:51:35.008Z,12.77
2023-05-22T07:52:36.414Z,13.32
2023-05-22T07:53:38.823Z,12.82
2023-05-22T07:54:42.404Z,13.52
2023-05-22T07:55:45.869Z,13.35
2023-05-22T07:56:49.604Z,13.27
2023-05-22T07:57:56.594Z,13.82
2023-05-22T07:59:07.534Z,13.10
2023-05-22T08:00:10.097Z,13.50
2023-05-22T08:01:15.530Z,13.70
2023-05-22T08:02:17.581Z,13.10
2023-05-22T08:03:24.509Z,12.70
2023-05-22T08:04:30.310Z,13.35
2023-05-22T08:05:38.288Z,14.30
2023-05-22T08:06:41.238Z,13.02
2023-05-22T08:07:42.771Z,12.82
2023-05-22T08:08:44.134Z,15.60
2023-05-22T08:09:46.801Z,14.80
2023-05-22T08:11:03.248Z,16.38
2023-05-22T08:12:10.454Z,13.98
2023-05-22T08:13:17.624Z,14.98
2023-05-22T08:14:21.625Z,14.30
2023-05-22T08:15:23.282Z,16.33
2023-05-22T08:16:24.844Z,14.68
2023-05-22T08:17:28.036Z,14.40
2023-05-22T08:18:30.040Z,15.75
2023-05-22T08:19:32.433Z,17.20
2023-05-22T08:20:34.015Z,15.88
2023-05-22T08:21:36.029Z,16.73
2023-05-22T08:22:39.216Z,15.50
2023-05-22T08:23:49.388Z,14.95
2023-05-22T08:24:55.855Z,14.50
2023-05-22T08:25:57.730Z,17.17
2023-05-22T08:27:00.497Z,16.63
2023-05-22T08:28:01.913Z,17.35
2023-05-22T08:29:06.148Z,15.55
2023-05-22T08:30:08.221Z,16.85
2023-05-22T08:31:13.021Z,15.68
2023-05-22T08:32:15.186Z,16.90
2023-05-22T08:33:17.036Z,17.27
2023-05-22T08:34:24.556Z,17.85
2023-05-22T08:35:26.151Z,17.35
2023-05-22T08:36:28.386Z,18.98
2023-05-22T08:37:29.738Z,18.48
2023-05-22T08:38:31.201Z,17.13
2023-05-22T08:39:32.648Z,18.60
2023-05-22T08:40:37.783Z,16.85
2023-05-22T08:41:39.639Z,19.42
2023-05-22T08:42:41.283Z,17.40
2023-05-22T08:43:42.660Z,15.98
2023-05-22T08:44:44.193Z,18.02
2023-05-22T08:45:45.973Z,18.63
2023-05-22T08:46:51.404Z,18.20
2023-05-22T08:47:55.098Z,17.58
2023-05-22T08:48:56.857Z,19.52
2023-05-22T08:49:59.251Z,19.25
2023-05-22T08:51:04.490Z,20.05
2023-05-22T08:52:10.684Z,18.15
2023-05-22T08:53:15.032Z,19.15
2023-05-22T08:54:18.416Z,18.48
2023-05-22T08:55:19.801Z,19.63
2023-05-22T08:56:22.129Z,18.92
2023-05-22T08:57:24.196Z,19.83
2023-05-22T08:58:26.035Z,19.42
2023-05-22T08:59:27.870Z,16.95
2023-05-22T09:00:30.149Z,18.77
2023-05-22T09:01:32.406Z,19.73
2023-05-22T09:02:33.882Z,18.13
2023-05-22T09:03:35.804Z,18.15
2023-05-22T09:04:37.290Z,19.23
2023-05-22T09:05:39.198Z,18.55
2023-05-22T09:06:40.624Z,20.90
2023-05-22T09:07:42.262Z,19.20
2023-05-22T09:08:43.757Z,21.02
2023-05-22T09:09:45.130Z,19.90
2023-05-22T09:10:46.603Z,21.52
2023-05-22T09:11:48.200Z,19.83
2023-05-22T09:13:19.316Z,20.23
2023-05-22T09:14:20.944Z,20.27
2023-05-22T09:15:22.431Z,20.42
2023-05-22T09:16:23.817Z,20.20
2023-05-22T09:17:26.249Z,19.65
2023-05-22T09:18:28.612Z,18.92
2023-05-22T09:19:30.005Z,20.40
2023-05-22T09:20:35.017Z,20.42
2023-05-22T09:21:37.241Z,18.58
2023-05-22T09:22:38.680Z,18.38
2023-05-22T09:23:40.759Z,17.65
2023-05-22T09:24:43.028Z,21.52
2023-05-22T09:25:44.555Z,20.08
2023-05-22T09:26:46.178Z,17.73
2023-05-22T09:27:48.177Z,16.90
2023-05-22T09:28:49.550Z,17.48
2023-05-22T09:29:52.094Z,18.77
2023-05-22T09:30:54.093Z,20.20
2023-05-22T09:31:55.912Z,18.08
2023-05-22T09:32:57.599Z,19.02
2023-05-22T09:33:59.752Z,20.77
2023-05-22T09:35:04.912Z,17.55
2023-05-22T09:36:08.838Z,16.33
2023-05-22T09:37:10.313Z,17.60
2023-05-22T09:38:12.385Z,16.60
2023-05-22T09:39:14.138Z,17.20
2023-05-22T09:40:15.563Z,17.02
2023-05-22T09:41:23.252Z,17.23
2023-05-22T09:42:24.604Z,17.55
2023-05-22T09:43:26.060Z,18.20
2023-05-22T09:44:27.611Z,19.25
2023-05-22T09:45:29.134Z,18.10
2023-05-22T09:46:30.565Z,17.55
2023-05-22T09:47:32.478Z,16.17
2023-05-22T09:48:35.937Z,16.75
2023-05-22T09:49:44.319Z,17.33
2023-05-22T09:50:49.576Z,16.65
2023-05-22T09:51:52.274Z,14.50
2023-05-22T09:52:54.247Z,15.60
2023-05-22T09:54:01.207Z,15.70
2023-05-22T09:55:04.637Z,16.73
2023-05-22T09:56:08.872Z,17.92
2023-05-22T09:57:13.927Z,16.63
2023-05-22T09:58:18.595Z,18.33
2023-05-22T09:59:27.183Z,16.98
2023-05-22T10:00:29.079Z,16.50
2023-05-22T10:01:31.050Z,18.60
2023-05-22T10:02:32.645Z,17.58
2023-05-22T10:03:34.746Z,17.60
2023-05-22T10:04:36.804Z,16.83
2023-05-22T10:05:41.358Z,17.95
2023-05-22T10:06:43.103Z,18.63
2023-05-22T10:07:48.408Z,18.00
2023-05-22T10:08:58.634Z,17.83
2023-05-22T10:10:04.000Z,18.05
2023-05-22T10:11:06.300Z,18.00
2023-05-22T10:12:08.061Z,18.25
2023-05-22T10:13:10.336Z,15.93
2023-05-22T10:14:12.564Z,15.68
2023-05-22T10:15:15.160Z,15.05
2023-05-22T10:16:16.870Z,15.93
2023-05-22T10:17:18.499Z,15.55
2023-05-22T10:18:20.228Z,14.93
2023-05-22T10:19:26.847Z,15.93
2023-05-22T10:20:29.422Z,18.05
2023-05-22T10:21:32.091Z,17.42
2023-05-22T10:22:39.376Z,17.88
2023-05-22T10:23:41.642Z,19.20
2023-05-22T10:24:43.418Z,16.77
2023-05-22T10:25:45.737Z,18.90
2023-05-22T10:26:47.425Z,19.27
2023-05-22T10:27:49.521Z,16.42
2023-05-22T10:28:53.980Z,15.32
2023-05-22T10:30:03.720Z,17.17
2023-05-22T10:31:14.503Z,17.60
2023-05-22T10:33:12.213Z,16.50
2023-05-22T10:34:18.031Z,18.73
2023-05-22T10:35:29.389Z,16.48
2023-05-22T10:36:56.068Z,16.80
2023-05-22T10:38:08.150Z,16.33
2023-05-22T10:39:28.397Z,14.77
2023-05-22T10:40:32.673Z,14.88
2023-05-22T10:41:34.729Z,13.68
2023-05-22T10:42:37.601Z,14.23
2023-05-22T10:43:41.926Z,14.02
2023-05-22T10:44:43.363Z,15.60
2023-05-22T10:45:46.453Z,15.45
2023-05-22T10:46:48.575Z,15.45
2023-05-22T10:48:01.311Z,15.25
2023-05-22T10:49:02.766Z,16.38
2023-05-22T10:50:08.154Z,16.95
2023-05-22T10:51:09.856Z,16.15
2023-05-22T10:52:11.437Z,14.45
2023-05-22T10:53:26.226Z,16.05
2023-05-22T10:54:38.263Z,14.35
2023-05-22T10:55:46.812Z,14.25
2023-05-22T10:56:48.244Z,13.88
2023-05-22T10:57:49.719Z,16.23
2023-05-22T10:58:58.361Z,14.68
2023-05-22T11:00:07.362Z,20.23
2023-05-22T11:01:13.368Z,14.55
2023-05-22T11:02:19.550Z,12.98
2023-05-22T11:03:21.156Z,15.43
2023-05-22T11:04:25.055Z,14.55
2023-05-22T11:05:28.524Z,13.63
2023-05-22T11:06:37.138Z,13.93
2023-05-22T11:07:41.085Z,12.80
2023-05-22T11:08:42.459Z,13.00
2023-05-22T11:09:47.647Z,13.50
2023-05-22T11:10:56.209Z,12.18
2023-05-22T11:12:16.521Z,13.88
2023-05-22T11:13:17.963Z,12.88
2023-05-22T11:14:20.249Z,13.23
2023-05-22T11:15:30.202Z,15.93
2023-05-22T11:16:32.684Z,13.60
2023-05-22T11:17:46.373Z,12.55
2023-05-22T11:18:47.829Z,11.60
2023-05-22T11:19:57.664Z,12.15
2023-05-22T11:20:59.824Z,11.60
2023-05-22T11:22:01.922Z,11.70
2023-05-22T11:23:05.321Z,11.68
2023-05-22T11:24:07.511Z,14.10
2023-05-22T11:25:16.716Z,12.43
2023-05-22T11:26:19.984Z,12.10
2023-05-22T11:27:21.520Z,12.23
2023-05-22T11:28:23.518Z,12.45
2023-05-22T11:29:24.991Z,11.80
2023-05-22T11:30:29.453Z,10.50
2023-05-22T11:31:30.876Z,11.00
2023-05-22T11:32:32.424Z,11.25
2023-05-22T11:33:33.825Z,13.07
2023-05-22T11:34:35.653Z,12.25
2023-05-22T11:35:37.576Z,14.35
2023-05-22T11:36:39.088Z,13.50
2023-05-22T11:37:40.853Z,14.98
2023-05-22T11:38:43.133Z,12.90
2023-05-22T11:39:57.625Z,13.07
2023-05-22T11:40:58.971Z,13.98
2023-05-22T11:42:00.879Z,14.27
2023-05-22T11:43:03.958Z,12.07
2023-05-22T11:44:07.894Z,13.15
2023-05-22T11:45:10.181Z,13.05
2023-05-22T11:46:12.254Z,12.23
2023-05-22T11:47:13.978Z,15.40
2023-05-22T11:48:15.892Z,11.80
2023-05-22T11:49:17.521Z,11.55
2023-05-22T11:51:23.859Z,12.32
2023-05-22T11:52:25.581Z,11.68
2023-05-22T11:53:27.050Z,12.10
2023-05-22T11:54:31.997Z,12.35
2023-05-22T11:55:33.410Z,12.45
2023-05-22T11:56:34.780Z,12.93
2023-05-22T11:57:36.899Z,15.07
2023-05-22T11:58:38.288Z,14.18
2023-05-22T11:59:39.782Z,11.60
2023-05-22T12:00:42.765Z,12.63
2023-05-22T12:01:44.312Z,15.40
2023-05-22T12:02:48.829Z,12.93
2023-05-22T12:03:50.491Z,17.75
2023-05-22T12:04:55.615Z,12.65
2023-05-22T12:05:57.533Z,12.68
2023-05-22T12:06:59.118Z,12.93
2023-05-22T12:08:00.946Z,14.68
2023-05-22T12:09:03.887Z,13.00
2023-05-22T12:10:07.213Z,12.82
2023-05-22T12:11:11.561Z,15.10
2023-05-22T12:12:13.011Z,12.82
2023-05-22T12:13:14.393Z,12.45
2023-05-22T12:14:15.988Z,16.13
2023-05-22T12:15:21.111Z,12.93
2023-05-22T12:16:22.752Z,12.20
2023-05-22T12:17:24.188Z,11.43
2023-05-22T12:18:26.164Z,11.68
2023-05-22T12:19:27.842Z,15.05
2023-05-22T12:20:30.502Z,11.43
2023-05-22T12:21:32.300Z,11.82
2023-05-22T12:22:33.696Z,14.55
2023-05-22T12:23:35.167Z,13.45
2023-05-22T12:24:46.753Z,12.35
2023-05-22T12:25:55.754Z,11.65
2023-05-22T12:26:57.092Z,11.85
2023-05-22T12:27:58.594Z,14.70
2023-05-22T12:29:00.128Z,12.57
2023-05-22T12:30:08.432Z,12.02
2023-05-22T12:31:09.889Z,12.57
2023-05-22T12:32:12.149Z,12.77
2023-05-22T12:33:14.894Z,11.48
2023-05-22T12:34:19.280Z,12.05
2023-05-22T12:35:20.775Z,13.35
2023-05-22T12:36:31.160Z,13.63
2023-05-22T12:37:33.683Z,11.90
2023-05-22T12:38:37.489Z,13.20
2023-05-22T12:39:38.851Z,13.20
2023-05-22T12:40:40.379Z,13.80
2023-05-22T12:41:42.098Z,13.02
2023-05-22T12:42:44.842Z,12.70
2023-05-22T12:43:46.193Z,13.05
2023-05-22T12:44:47.640Z,14.15
2023-05-22T12:45:49.212Z,10.80
2023-05-22T12:46:52.266Z,11.45
2023-05-22T12:47:53.745Z,11.13
2023-05-22T12:48:55.386Z,11.93
2023-05-22T12:49:56.768Z,11.73
2023-05-22T12:50:58.125Z,11.18
2023-05-22T12:51:59.502Z,10.75
2023-05-22T12:53:03.954Z,11.15
2023-05-22T12:54:05.508Z,12.05
2023-05-22T12:55:10.181Z,13.63
2023-05-22T12:56:12.010Z,11.30
2023-05-22T12:57:13.462Z,9.95
2023-05-22T12:58:14.998Z,11.02
2023-05-22T12:59:16.442Z,10.52
2023-05-22T13:00:17.967Z,10.75
2023-05-22T13:01:19.503Z,11.43
2023-05-22T13:02:20.961Z,11.68
2023-05-22T13:03:22.416Z,11.40
2023-05-22T13:04:23.852Z,11.05
2023-05-22T13:05:25.339Z,10.88
2023-05-22T13:06:29.090Z,10.52
2023-05-22T13:07:31.917Z,11.05
2023-05-22T13:08:33.700Z,11.20
2023-05-22T13:09:35.092Z,10.88
2023-05-22T13:10:38.144Z,10.93
2023-05-22T13:11:39.713Z,11.15
2023-05-22T13:12:41.682Z,10.70
2023-05-22T13:13:43.060Z,10.02
2023-05-22T13:14:44.527Z,11.77
2023-05-22T13:15:46.142Z,10.02
2023-05-22T13:16:47.541Z,12.52
2023-05-22T13:17:48.990Z,10.38
2023-05-22T13:18:50.743Z,10.93
2023-05-22T13:19:52.497Z,10.95
2023-05-22T13:20:56.201Z,9.98
2023-05-22T13:21:57.590Z,9.18
2023-05-22T13:22:58.960Z,8.88
2023-05-22T13:24:00.347Z,9.48
2023-05-22T13:25:01.792Z,11.52
2023-05-22T13:26:03.249Z,9.27
2023-05-22T13:27:04.739Z,9.20
2023-05-22T13:28:06.080Z,11.35
2023-05-22T13:29:07.454Z,9.68
2023-05-22T13:30:09.015Z,10.68
2023-05-22T13:31:10.517Z,9.02
2023-05-22T13:32:14.747Z,8.95
2023-05-22T13:33:16.448Z,8.70
2023-05-22T13:34:18.099Z,9.52
2023-05-22T13:35:19.912Z,9.68
2023-05-22T13:36:21.365Z,9.57
2023-05-22T13:37:22.760Z,9.30
2023-05-22T13:38:24.206Z,10.45
2023-05-22T13:39:25.622Z,9.25
2023-05-22T13:40:27.118Z,9.18
2023-05-22T13:41:28.572Z,8.95
2023-05-22T13:42:30.012Z,10.40
2023-05-22T13:43:31.525Z,9.73